createdAt,value
2022-11-16T00:00:40.707Z,7
2022-11-16T00:01:43.475Z,7
2022-11-16T00:02:46.298Z,7
2022-11-16T00:03:48.990Z,7
2022-11-16T00:04:51.596Z,5
2022-11-16T00:05:54.268Z,6
2022-11-16T00:06:56.992Z,7
2022-11-16T00:07:59.754Z,7
2022-11-16T00:09:02.394Z,6
2022-11-16T00:10:05.042Z,5
2022-11-16T00:11:07.678Z,4
2022-11-16T00:12:10.314Z,6
2022-11-16T00:13:12.933Z,6
2022-11-16T00:14:15.558Z,6
2022-11-16T00:15:18.207Z,6
2022-11-16T00:16:20.837Z,7
2022-11-16T00:17:23.468Z,8
2022-11-16T00:18:26.102Z,7
2022-11-16T00:19:28.729Z,6
2022-11-16T00:20:31.380Z,7
2022-11-16T00:21:34.074Z,7
2022-11-16T00:22:36.773Z,8
2022-11-16T00:23:39.463Z,8
2022-11-16T00:24:42.077Z,8
2022-11-16T00:25:44.711Z,9
2022-11-16T00:26:47.902Z,7
2022-11-16T00:27:50.494Z,10
2022-11-16T00:28:53.144Z,10
2022-11-16T00:29:55.964Z,10
2022-11-16T00:30:58.561Z,8
2022-11-16T00:32:01.188Z,10
2022-11-16T00:33:06.529Z,9
2022-11-16T00:34:08.895Z,11
2022-11-16T00:35:11.542Z,10
2022-11-16T00:36:14.195Z,10
2022-11-16T00:37:16.807Z,10
2022-11-16T00:38:19.485Z,9
2022-11-16T00:39:22.157Z,10
2022-11-16T00:40:24.799Z,10
2022-11-16T00:41:27.447Z,11
2022-11-16T00:42:30.092Z,11
2022-11-16T00:43:32.717Z,9
2022-11-16T00:44:35.358Z,10
2022-11-16T00:45:37.979Z,10
2022-11-16T00:46:40.629Z,11
2022-11-16T00:47:43.270Z,10
2022-11-16T00:48:45.909Z,10
2022-11-16T00:49:48.515Z,11
2022-11-16T00:50:51.130Z,10
2022-11-16T00:51:53.764Z,10
2022-11-16T00:52:56.441Z,11
2022-11-16T00:53:59.344Z,11
2022-11-16T00:55:01.955Z,11
2022-11-16T00:56:04.577Z,10
2022-11-16T00:57:07.216Z,11
2022-11-16T00:58:09.850Z,11
2022-11-16T00:59:12.473Z,11
2022-11-16T01:00:15.135Z,11
2022-11-16T01:01:17.892Z,11
2022-11-16T01:02:20.614Z,10
2022-11-16T01:03:23.282Z,11
2022-11-16T01:04:25.950Z,11
2022-11-16T01:05:28.556Z,11
2022-11-16T01:06:31.170Z,11
2022-11-16T01:07:34.013Z,11
2022-11-16T01:08:37.339Z,11
2022-11-16T01:09:43.515Z,13
2022-11-16T01:10:45.968Z,11
2022-11-16T01:11:48.716Z,11
2022-11-16T01:12:51.347Z,11
2022-11-16T01:13:53.994Z,10
2022-11-16T01:14:56.656Z,11
2022-11-16T01:15:59.267Z,13
2022-11-16T01:17:01.918Z,11
2022-11-16T01:18:04.516Z,10
2022-11-16T01:19:07.748Z,11
2022-11-16T01:20:10.337Z,10
2022-11-16T01:21:12.959Z,13
2022-11-16T01:22:19.331Z,11
2022-11-16T01:23:22.342Z,11
2022-11-16T01:24:24.977Z,10
2022-11-16T01:25:27.653Z,11
2022-11-16T01:26:30.295Z,13
2022-11-16T01:27:32.935Z,13
2022-11-16T01:28:36.527Z,14
2022-11-16T01:29:40.629Z,13
2022-11-16T01:30:43.197Z,13
2022-11-16T01:31:45.798Z,14
2022-11-16T01:32:48.442Z,15
2022-11-16T01:33:51.069Z,14
2022-11-16T01:34:53.689Z,14
2022-11-16T01:35:56.303Z,16
2022-11-16T01:36:58.915Z,14
2022-11-16T01:38:01.542Z,14
2022-11-16T01:39:04.338Z,13
2022-11-16T01:40:07.025Z,13
2022-11-16T01:41:09.689Z,11
2022-11-16T01:42:12.357Z,11
2022-11-16T01:43:15.006Z,12
2022-11-16T01:44:17.632Z,10
2022-11-16T01:45:20.216Z,10
2022-11-16T01:46:23.044Z,8
2022-11-16T01:47:25.660Z,8
2022-11-16T01:48:31.114Z,8
2022-11-16T01:49:35.084Z,7
2022-11-16T01:50:37.745Z,7
2022-11-16T01:51:40.498Z,7
2022-11-16T01:52:43.113Z,6
2022-11-16T01:53:45.993Z,6
2022-11-16T01:54:48.628Z,7
2022-11-16T01:55:51.287Z,5
2022-11-16T01:56:53.957Z,4
2022-11-16T01:57:56.602Z,6
2022-11-16T01:58:59.256Z,4
2022-11-16T02:00:01.909Z,4
2022-11-16T02:01:04.704Z,5
2022-11-16T02:02:07.481Z,7
2022-11-16T02:03:10.158Z,7
2022-11-16T02:04:12.772Z,8
2022-11-16T02:05:15.637Z,10
2022-11-16T02:06:18.258Z,11
2022-11-16T02:07:21.173Z,11
2022-11-16T02:08:23.982Z,11
2022-11-16T02:09:26.633Z,13
2022-11-16T02:10:29.257Z,14
2022-11-16T02:11:32.005Z,14
2022-11-16T02:12:34.667Z,13
2022-11-16T02:13:37.323Z,13
2022-11-16T02:14:39.953Z,13
2022-11-16T02:15:42.534Z,14
2022-11-16T02:16:45.406Z,12
2022-11-16T02:17:48.009Z,13
2022-11-16T02:18:50.694Z,13
2022-11-16T02:19:53.298Z,11
2022-11-16T02:20:55.923Z,10
2022-11-16T02:21:58.570Z,10
2022-11-16T02:23:01.240Z,11
2022-11-16T02:24:03.898Z,10
2022-11-16T02:25:06.696Z,10
2022-11-16T02:26:09.326Z,9
2022-11-16T02:27:11.997Z,10
2022-11-16T02:28:16.194Z,8
2022-11-16T02:29:18.716Z,8
2022-11-16T02:30:21.548Z,9
2022-11-16T02:31:24.191Z,8
2022-11-16T02:32:26.832Z,8
2022-11-16T02:33:29.415Z,8
2022-11-16T02:34:32.256Z,7
2022-11-16T02:35:34.890Z,7
2022-11-16T02:36:37.549Z,7
2022-11-16T02:37:40.192Z,8
2022-11-16T02:38:42.820Z,7
2022-11-16T02:39:45.450Z,6
2022-11-16T02:40:48.122Z,7
2022-11-16T02:41:50.725Z,7
2022-11-16T02:42:53.395Z,7
2022-11-16T02:43:56.088Z,6
2022-11-16T02:44:58.672Z,7
2022-11-16T02:46:01.319Z,6
2022-11-16T02:47:04.020Z,6
2022-11-16T02:48:06.665Z,5
2022-11-16T02:49:09.312Z,6
2022-11-16T02:50:11.951Z,6
2022-11-16T02:51:14.596Z,7
2022-11-16T02:52:17.227Z,7
2022-11-16T02:53:19.867Z,7
2022-11-16T02:54:22.513Z,7
2022-11-16T02:55:25.141Z,6
2022-11-16T02:56:28.392Z,7
2022-11-16T02:57:31.031Z,6
2022-11-16T02:58:34.433Z,6
2022-11-16T02:59:37.937Z,5
2022-11-16T03:00:40.759Z,5
2022-11-16T03:01:43.449Z,6
2022-11-16T03:02:46.081Z,6
2022-11-16T03:03:48.739Z,6
2022-11-16T03:04:51.359Z,6
2022-11-16T03:05:54.025Z,6
2022-11-16T03:06:57.394Z,4
2022-11-16T03:08:00.812Z,5
2022-11-16T03:09:03.503Z,7
2022-11-16T03:10:06.124Z,5
2022-11-16T03:11:08.781Z,5
2022-11-16T03:12:11.812Z,6
2022-11-16T03:13:14.422Z,5
2022-11-16T03:14:17.141Z,6
2022-11-16T03:15:19.802Z,6
2022-11-16T03:16:22.434Z,4
2022-11-16T03:17:25.071Z,4
2022-11-16T03:18:27.702Z,4
2022-11-16T03:19:30.340Z,4
2022-11-16T03:20:32.965Z,4
2022-11-16T03:21:35.575Z,4
2022-11-16T03:22:38.238Z,4
2022-11-16T03:23:40.909Z,4
2022-11-16T03:24:43.561Z,4
2022-11-16T03:25:46.383Z,5
2022-11-16T03:26:49.226Z,5
2022-11-16T03:27:51.850Z,4
2022-11-16T03:28:54.476Z,4
2022-11-16T03:29:57.188Z,4
2022-11-16T03:30:59.934Z,5
2022-11-16T03:32:03.156Z,4
2022-11-16T03:33:05.963Z,5
2022-11-16T03:35:31.309Z,6
2022-11-16T03:36:33.882Z,6
2022-11-16T03:37:37.074Z,6
2022-11-16T03:38:39.701Z,6
2022-11-16T03:39:42.334Z,4
2022-11-16T03:40:44.970Z,5
2022-11-16T03:41:47.624Z,4
2022-11-16T03:42:50.379Z,4
2022-11-16T03:43:53.017Z,5
2022-11-16T03:44:55.696Z,4
2022-11-16T03:45:58.363Z,6
2022-11-16T03:47:01.057Z,6
2022-11-16T03:48:03.941Z,6
2022-11-16T03:49:06.597Z,6
2022-11-16T03:50:09.207Z,5
2022-11-16T03:51:11.856Z,5
2022-11-16T03:52:14.475Z,5
2022-11-16T03:53:20.019Z,5
2022-11-16T03:54:22.831Z,5
2022-11-16T03:55:25.458Z,5
2022-11-16T03:56:28.098Z,4
2022-11-16T03:57:30.751Z,4
2022-11-16T03:58:34.088Z,4
2022-11-16T03:59:37.776Z,5
2022-11-16T04:00:40.557Z,5
2022-11-16T04:01:45.184Z,4
2022-11-16T04:02:47.727Z,4
2022-11-16T04:03:50.507Z,4
2022-11-16T04:04:57.899Z,4
2022-11-16T04:06:02.715Z,4
2022-11-16T04:07:05.417Z,4
2022-11-16T04:08:08.131Z,6
2022-11-16T04:09:10.735Z,4
2022-11-16T04:10:13.376Z,4
2022-11-16T04:11:16.007Z,4
2022-11-16T04:12:18.673Z,4
2022-11-16T04:13:21.321Z,4
2022-11-16T04:14:24.938Z,4
2022-11-16T04:15:27.557Z,4
2022-11-16T04:16:30.185Z,4
2022-11-16T04:17:32.897Z,4
2022-11-16T04:18:36.698Z,4
2022-11-16T04:19:39.797Z,4
2022-11-16T04:20:42.437Z,4
2022-11-16T04:21:45.650Z,4
2022-11-16T04:22:48.352Z,4
2022-11-16T04:23:51.556Z,4
2022-11-16T04:24:54.160Z,4
2022-11-16T04:25:56.761Z,4
2022-11-16T04:26:59.392Z,4
2022-11-16T04:28:02.279Z,4
2022-11-16T04:29:04.941Z,4
2022-11-16T04:30:07.531Z,4
2022-11-16T04:31:10.178Z,4
2022-11-16T04:32:12.802Z,3
2022-11-16T04:33:15.524Z,4
2022-11-16T04:34:18.259Z,4
2022-11-16T04:35:20.878Z,4
2022-11-16T04:36:24.125Z,4
2022-11-16T04:37:26.742Z,4
2022-11-16T04:38:29.374Z,4
2022-11-16T04:39:32.030Z,4
2022-11-16T04:40:44.712Z,4
2022-11-16T04:41:46.938Z,4
2022-11-16T04:42:49.781Z,3
2022-11-16T04:43:52.639Z,3
2022-11-16T04:44:55.196Z,4
2022-11-16T04:45:57.844Z,4
2022-11-16T04:47:00.467Z,4
2022-11-16T04:48:03.103Z,4
2022-11-16T04:49:05.797Z,4
2022-11-16T04:50:08.469Z,4
2022-11-16T04:51:11.082Z,4
2022-11-16T04:52:13.721Z,4
2022-11-16T04:53:16.333Z,3
2022-11-16T04:54:18.986Z,4
2022-11-16T04:55:21.618Z,4
2022-11-16T04:56:24.220Z,4
2022-11-16T04:57:26.896Z,3
2022-11-16T04:58:29.517Z,3
2022-11-16T04:59:32.382Z,4
2022-11-16T05:00:34.995Z,3
2022-11-16T05:01:37.662Z,3
2022-11-16T05:02:40.366Z,3
2022-11-16T05:03:42.963Z,3
2022-11-16T05:04:45.644Z,4
2022-11-16T05:05:48.344Z,3
2022-11-16T05:06:51.046Z,4
2022-11-16T05:07:53.781Z,3
2022-11-16T05:08:56.408Z,3
2022-11-16T05:09:59.047Z,3
2022-11-16T05:11:01.687Z,4
2022-11-16T05:12:04.319Z,3
2022-11-16T05:13:07.011Z,3
2022-11-16T05:14:09.602Z,3
2022-11-16T05:15:12.216Z,4
2022-11-16T05:16:14.837Z,4
2022-11-16T05:17:17.474Z,4
2022-11-16T05:18:20.320Z,4
2022-11-16T05:19:22.933Z,4
2022-11-16T05:20:25.602Z,4
2022-11-16T05:21:28.248Z,4
2022-11-16T05:22:30.913Z,4
2022-11-16T05:23:33.579Z,3
2022-11-16T05:24:36.225Z,3
2022-11-16T05:25:38.860Z,3
2022-11-16T05:26:45.090Z,3
2022-11-16T05:27:53.107Z,3
2022-11-16T05:28:55.191Z,3
2022-11-16T05:32:16.593Z,4
2022-11-16T05:33:18.227Z,5
2022-11-16T05:35:31.689Z,4
2022-11-16T05:36:37.404Z,4
2022-11-16T05:37:39.935Z,3
2022-11-16T05:38:42.471Z,3
2022-11-16T05:40:03.671Z,3
2022-11-16T05:41:05.770Z,3
2022-11-16T05:42:08.406Z,3
2022-11-16T05:43:12.982Z,3
2022-11-16T05:44:15.155Z,3
2022-11-16T05:45:30.412Z,3
2022-11-16T05:46:32.260Z,3
2022-11-16T05:47:39.170Z,3
2022-11-16T05:48:41.198Z,2
2022-11-16T05:49:43.788Z,3
2022-11-16T05:50:46.458Z,2
2022-11-16T05:51:53.750Z,4
2022-11-16T05:52:58.795Z,3
2022-11-16T05:54:01.412Z,3
2022-11-16T05:55:03.997Z,3
2022-11-16T05:56:10.903Z,3
2022-11-16T05:57:13.323Z,3
2022-11-16T05:58:16.245Z,3
2022-11-16T05:59:18.857Z,4
2022-11-16T06:00:28.084Z,4
2022-11-16T06:01:30.090Z,4
2022-11-16T06:02:32.723Z,4
2022-11-16T06:03:35.444Z,4
2022-11-16T06:04:38.460Z,8
2022-11-16T06:05:41.106Z,10
2022-11-16T06:06:43.719Z,8
2022-11-16T06:07:46.360Z,9
2022-11-16T06:08:51.483Z,5
2022-11-16T06:09:57.453Z,4
2022-11-16T06:10:59.817Z,4
2022-11-16T06:12:02.415Z,4
2022-11-16T06:13:05.058Z,4
2022-11-16T06:14:07.712Z,3
2022-11-16T06:15:10.338Z,3
2022-11-16T06:17:26.245Z,4
2022-11-16T06:18:36.855Z,3
2022-11-16T06:19:40.093Z,3
2022-11-16T06:20:42.665Z,3
2022-11-16T06:22:01.032Z,3
2022-11-16T06:23:06.749Z,4
2022-11-16T06:24:23.751Z,3
2022-11-16T06:25:52.984Z,3
2022-11-16T06:26:55.621Z,4
2022-11-16T06:31:09.796Z,3
2022-11-16T06:32:12.451Z,3
2022-11-16T06:33:15.544Z,3
2022-11-16T06:34:18.282Z,3
2022-11-16T06:35:25.521Z,3
2022-11-16T06:36:27.532Z,3
2022-11-16T06:37:30.147Z,3
2022-11-16T06:38:38.251Z,3
2022-11-16T06:39:47.077Z,2
2022-11-16T06:40:49.695Z,2
2022-11-16T06:41:52.124Z,3
2022-11-16T06:42:59.081Z,3
2022-11-16T06:44:01.131Z,3
2022-11-16T06:45:13.783Z,1
2022-11-16T06:46:15.974Z,3
2022-11-16T06:47:27.864Z,3
2022-11-16T06:48:30.150Z,4
2022-11-16T06:49:33.235Z,3
2022-11-16T06:50:36.016Z,3
2022-11-16T06:51:38.634Z,2
2022-11-16T06:52:41.286Z,1
2022-11-16T06:53:44.143Z,1
2022-11-16T06:54:46.795Z,1
2022-11-16T06:55:54.941Z,1
2022-11-16T06:56:57.129Z,1
2022-11-16T06:58:05.292Z,2
2022-11-16T06:59:08.955Z,2
2022-11-16T07:00:11.391Z,3
2022-11-16T07:01:14.084Z,1
2022-11-16T07:02:16.862Z,1
2022-11-16T07:03:19.712Z,1
2022-11-16T07:04:22.408Z,1
2022-11-16T07:05:31.921Z,1
2022-11-16T07:06:34.767Z,1
2022-11-16T07:07:37.246Z,3
2022-11-16T07:08:40.010Z,2
2022-11-16T07:09:47.423Z,1
2022-11-16T07:11:04.120Z,1
2022-11-16T07:12:12.993Z,1
2022-11-16T07:13:15.283Z,1
2022-11-16T07:14:18.461Z,1
2022-11-16T07:15:21.038Z,1
2022-11-16T07:16:23.679Z,1
2022-11-16T07:17:31.876Z,1
2022-11-16T07:18:36.297Z,3
2022-11-16T07:19:39.964Z,4
2022-11-16T07:20:42.690Z,3
2022-11-16T07:21:45.564Z,2
2022-11-16T07:22:48.284Z,2
2022-11-16T07:23:53.202Z,2
2022-11-16T07:25:00.942Z,1
2022-11-16T07:26:03.164Z,1
2022-11-16T07:27:05.698Z,1
2022-11-16T07:28:14.980Z,1
2022-11-16T07:29:19.439Z,1
2022-11-16T07:30:22.294Z,1
2022-11-16T07:31:38.444Z,1
2022-11-16T07:32:40.857Z,1
2022-11-16T07:33:47.852Z,1
2022-11-16T07:34:50.394Z,1
2022-11-16T07:35:53.305Z,1
2022-11-16T07:36:56.246Z,2
2022-11-16T07:37:58.858Z,1
2022-11-16T07:39:01.488Z,1
2022-11-16T07:40:04.133Z,1
2022-11-16T07:41:06.843Z,1
2022-11-16T07:42:10.017Z,1
2022-11-16T07:43:18.050Z,1
2022-11-16T07:44:20.195Z,1
2022-11-16T07:45:31.059Z,1
2022-11-16T07:46:46.888Z,1
2022-11-16T07:47:50.990Z,1
2022-11-16T07:49:09.977Z,1
2022-11-16T07:50:13.883Z,2
2022-11-16T07:51:16.703Z,2
2022-11-16T07:52:28.093Z,3
2022-11-16T07:53:51.297Z,3
2022-11-16T07:55:18.236Z,3
2022-11-16T07:56:58.048Z,2
2022-11-16T07:58:04.514Z,3
2022-11-16T07:59:43.122Z,3
2022-11-16T08:00:45.256Z,3
2022-11-16T08:01:47.920Z,3
2022-11-16T08:02:56.476Z,3
2022-11-16T08:04:00.214Z,2
2022-11-16T08:05:02.458Z,1
2022-11-16T08:06:10.867Z,1
2022-11-16T08:07:16.372Z,1
2022-11-16T08:08:19.419Z,1
2022-11-16T08:09:23.679Z,1
2022-11-16T08:10:31.845Z,1
2022-11-16T08:11:34.561Z,1
2022-11-16T08:12:47.999Z,1
2022-11-16T08:14:02.086Z,2
2022-11-16T08:15:07.223Z,3
2022-11-16T08:16:17.655Z,2
2022-11-16T08:17:19.636Z,3
2022-11-16T08:18:22.225Z,2
2022-11-16T08:19:24.840Z,3
2022-11-16T08:20:27.681Z,2
2022-11-16T08:21:30.494Z,1
2022-11-16T08:22:33.209Z,1
2022-11-16T08:23:35.975Z,1
2022-11-16T08:24:38.621Z,1
2022-11-16T08:25:41.274Z,1
2022-11-16T08:26:43.898Z,1
2022-11-16T08:27:46.577Z,1
2022-11-16T08:28:50.265Z,1
2022-11-16T08:29:52.857Z,1
2022-11-16T08:30:55.556Z,1
2022-11-16T08:31:58.218Z,1
2022-11-16T08:33:00.879Z,1
2022-11-16T08:34:03.562Z,1
2022-11-16T08:35:06.209Z,1
2022-11-16T08:36:14.552Z,1
2022-11-16T08:37:17.027Z,1
2022-11-16T08:38:19.717Z,2
2022-11-16T08:39:22.486Z,3
2022-11-16T08:40:25.149Z,2
2022-11-16T08:41:27.824Z,3
2022-11-16T08:42:31.156Z,2
2022-11-16T08:43:33.769Z,3
2022-11-16T08:44:36.456Z,1
2022-11-16T08:45:39.167Z,1
2022-11-16T08:46:41.852Z,1
2022-11-16T08:47:44.574Z,2
2022-11-16T08:48:48.693Z,2
2022-11-16T08:49:51.469Z,2
2022-11-16T08:51:21.299Z,1
2022-11-16T08:52:16.041Z,2
2022-11-16T08:53:18.881Z,3
2022-11-16T08:54:21.873Z,3
2022-11-16T08:55:24.655Z,2
2022-11-16T08:56:27.642Z,3
2022-11-16T08:57:30.345Z,2
2022-11-16T08:58:33.614Z,3
2022-11-16T08:59:37.370Z,3
2022-11-16T09:00:40.041Z,3
2022-11-16T09:01:42.815Z,3
2022-11-16T09:02:45.623Z,2
2022-11-16T09:03:48.758Z,3
2022-11-16T09:04:51.636Z,3
2022-11-16T09:05:54.355Z,2
2022-11-16T09:06:57.230Z,3
2022-11-16T09:08:00.069Z,3
2022-11-16T09:09:03.176Z,3
2022-11-16T09:10:06.900Z,2
2022-11-16T09:11:10.428Z,2
2022-11-16T09:12:13.040Z,3
2022-11-16T09:13:15.895Z,3
2022-11-16T09:14:18.538Z,3
2022-11-16T09:15:21.151Z,2
2022-11-16T09:16:23.942Z,3
2022-11-16T09:17:26.668Z,3
2022-11-16T09:18:29.534Z,3
2022-11-16T09:19:32.408Z,3
2022-11-16T09:20:36.262Z,3
2022-11-16T09:21:39.383Z,3
2022-11-16T09:22:42.092Z,3
2022-11-16T09:23:45.002Z,4
2022-11-16T09:24:47.866Z,5
2022-11-16T09:25:50.595Z,4
2022-11-16T09:26:53.394Z,3
2022-11-16T09:27:56.071Z,3
2022-11-16T09:28:58.731Z,2
2022-11-16T09:30:01.466Z,3
2022-11-16T09:31:04.271Z,3
2022-11-16T09:32:07.016Z,3
2022-11-16T09:33:09.711Z,3
2022-11-16T09:34:12.388Z,3
2022-11-16T09:35:15.017Z,2
2022-11-16T09:36:17.978Z,3
2022-11-16T09:37:20.615Z,2
2022-11-16T09:38:40.507Z,3
2022-11-16T09:39:45.183Z,3
2022-11-16T09:40:48.025Z,3
2022-11-16T09:41:50.805Z,3
2022-11-16T09:42:53.592Z,3
2022-11-16T09:43:56.259Z,3
2022-11-16T09:44:58.899Z,3
2022-11-16T09:46:01.583Z,3
2022-11-16T09:47:04.264Z,3
2022-11-16T09:48:06.955Z,3
2022-11-16T09:49:17.466Z,3
2022-11-16T09:50:20.339Z,3
2022-11-16T09:51:23.018Z,3
2022-11-16T09:52:25.685Z,3
2022-11-16T09:53:28.361Z,3
2022-11-16T09:54:34.560Z,2
2022-11-16T09:55:36.985Z,3
2022-11-16T09:56:39.804Z,3
2022-11-16T09:57:42.532Z,3
2022-11-16T09:58:45.358Z,3
2022-11-16T09:59:47.992Z,3
2022-11-16T10:00:50.788Z,3
2022-11-16T10:01:53.584Z,2
2022-11-16T10:02:56.263Z,3
2022-11-16T10:04:08.959Z,3
2022-11-16T10:05:11.186Z,3
2022-11-16T10:06:14.062Z,2
2022-11-16T10:07:16.788Z,3
2022-11-16T10:08:19.725Z,4
2022-11-16T10:09:22.363Z,4
2022-11-16T10:10:25.024Z,4
2022-11-16T10:11:27.705Z,5
2022-11-16T10:12:35.995Z,4
2022-11-16T10:13:38.468Z,13
2022-11-16T10:14:41.194Z,16
2022-11-16T10:15:44.038Z,11
2022-11-16T10:16:49.839Z,45
2022-11-16T10:17:52.362Z,16
2022-11-16T10:18:58.581Z,55
2022-11-16T10:20:01.070Z,18
2022-11-16T10:21:03.816Z,6
2022-11-16T10:22:06.498Z,3
2022-11-16T10:23:09.190Z,3
2022-11-16T10:24:11.904Z,2
2022-11-16T10:25:14.624Z,3
2022-11-16T10:26:17.947Z,3
2022-11-16T10:27:22.419Z,3
2022-11-16T10:28:25.204Z,3
2022-11-16T10:29:28.187Z,3
2022-11-16T10:30:31.061Z,3
2022-11-16T10:31:33.858Z,3
2022-11-16T10:32:36.662Z,3
2022-11-16T10:33:39.511Z,3
2022-11-16T10:34:42.284Z,3
2022-11-16T10:35:45.256Z,3
2022-11-16T10:36:48.020Z,3
2022-11-16T10:37:50.781Z,3
2022-11-16T10:38:53.537Z,4
2022-11-16T10:39:56.140Z,3
2022-11-16T10:40:58.745Z,3
2022-11-16T10:42:07.778Z,3
2022-11-16T10:43:10.298Z,3
2022-11-16T10:44:13.064Z,4
2022-11-16T10:45:15.674Z,3
2022-11-16T10:46:18.387Z,3
2022-11-16T10:47:21.196Z,2
2022-11-16T10:48:23.884Z,3
2022-11-16T10:49:26.772Z,3
2022-11-16T10:50:29.361Z,3
2022-11-16T10:51:31.974Z,3
2022-11-16T10:52:34.586Z,3
2022-11-16T10:53:37.798Z,3
2022-11-16T10:54:44.751Z,2
2022-11-16T10:55:47.128Z,3
2022-11-16T10:56:49.831Z,3
2022-11-16T10:57:52.475Z,3
2022-11-16T10:58:55.111Z,3
2022-11-16T10:59:57.983Z,2
2022-11-16T11:01:00.759Z,2
2022-11-16T11:02:03.705Z,3
2022-11-16T11:03:06.910Z,3
2022-11-16T11:04:09.748Z,2
2022-11-16T11:05:12.561Z,2
2022-11-16T11:06:15.194Z,3
2022-11-16T11:07:18.018Z,1
2022-11-16T11:08:20.768Z,2
2022-11-16T11:09:23.433Z,2
2022-11-16T11:10:28.965Z,2
2022-11-16T11:11:31.452Z,3
2022-11-16T11:12:34.107Z,3
2022-11-16T11:13:37.272Z,2
2022-11-16T11:14:39.956Z,3
2022-11-16T11:15:42.722Z,3
2022-11-16T11:16:45.365Z,3
2022-11-16T11:17:48.141Z,3
2022-11-16T11:18:50.770Z,1
2022-11-16T11:19:53.379Z,1
2022-11-16T11:20:56.049Z,2
2022-11-16T11:21:58.689Z,2
2022-11-16T11:23:01.327Z,3
2022-11-16T11:24:37.603Z,3
2022-11-16T11:25:25.874Z,2
2022-11-16T11:26:37.308Z,3
2022-11-16T11:27:39.844Z,1
2022-11-16T11:28:42.449Z,2
2022-11-16T11:29:45.080Z,4
2022-11-16T11:30:47.994Z,3
2022-11-16T11:31:50.712Z,2
2022-11-16T11:32:53.446Z,2
2022-11-16T11:33:56.093Z,2
2022-11-16T11:34:58.749Z,2
2022-11-16T11:36:01.416Z,1
2022-11-16T11:37:04.067Z,1
2022-11-16T11:38:08.695Z,3
2022-11-16T11:39:11.319Z,2
2022-11-16T11:40:14.163Z,3
2022-11-16T11:41:16.805Z,2
2022-11-16T11:42:19.451Z,2
2022-11-16T11:43:22.349Z,2
2022-11-16T11:44:24.960Z,3
2022-11-16T11:45:27.645Z,3
2022-11-16T11:47:06.665Z,1
2022-11-16T11:47:58.901Z,1
2022-11-16T11:49:03.040Z,3
2022-11-16T11:50:05.638Z,2
2022-11-16T11:51:08.268Z,1
2022-11-16T11:52:12.118Z,1
2022-11-16T11:53:14.683Z,3
2022-11-16T11:54:17.313Z,3
2022-11-16T11:55:19.939Z,3
2022-11-16T11:56:22.559Z,2
2022-11-16T11:57:25.206Z,2
2022-11-16T11:58:27.857Z,3
2022-11-16T11:59:30.493Z,4
2022-11-16T12:00:33.185Z,3
2022-11-16T12:01:35.943Z,3
2022-11-16T12:02:38.722Z,2
2022-11-16T12:03:41.626Z,4
2022-11-16T12:04:44.275Z,2
2022-11-16T12:05:46.929Z,3
2022-11-16T12:06:49.903Z,3
2022-11-16T12:07:52.683Z,3
2022-11-16T12:08:55.336Z,3
2022-11-16T12:09:58.012Z,3
2022-11-16T12:11:00.667Z,2
2022-11-16T12:12:03.318Z,3
2022-11-16T12:13:05.960Z,3
2022-11-16T12:14:08.567Z,3
2022-11-16T12:15:21.259Z,3
2022-11-16T12:16:23.484Z,3
2022-11-16T12:17:26.223Z,3
2022-11-16T12:18:29.051Z,3
2022-11-16T12:19:31.701Z,3
2022-11-16T12:20:34.463Z,3
2022-11-16T12:21:37.112Z,3
2022-11-16T12:22:39.732Z,3
2022-11-16T12:23:42.395Z,3
2022-11-16T12:24:45.048Z,3
2022-11-16T12:25:47.689Z,3
2022-11-16T12:26:50.335Z,3
2022-11-16T12:27:52.991Z,3
2022-11-16T12:28:55.652Z,3
2022-11-16T12:29:58.290Z,3
2022-11-16T12:31:00.921Z,3
2022-11-16T12:32:03.563Z,3
2022-11-16T12:33:06.503Z,3
2022-11-16T12:34:09.195Z,3
2022-11-16T12:35:11.963Z,2
2022-11-16T12:36:14.666Z,3
2022-11-16T12:37:17.901Z,3
2022-11-16T12:38:26.468Z,3
2022-11-16T12:39:28.877Z,4
2022-11-16T12:40:31.509Z,3
2022-11-16T12:41:34.126Z,3
2022-11-16T12:42:36.770Z,3
2022-11-16T12:43:42.177Z,3
2022-11-16T12:44:44.707Z,3
2022-11-16T12:45:47.889Z,3
2022-11-16T12:46:50.519Z,3
2022-11-16T12:47:53.173Z,3
2022-11-16T12:48:55.947Z,3
2022-11-16T12:49:58.553Z,3
2022-11-16T12:51:03.999Z,3
2022-11-16T12:52:09.639Z,3
2022-11-16T12:53:19.060Z,3
2022-11-16T12:54:23.093Z,3
2022-11-16T12:55:30.607Z,3
2022-11-16T12:56:33.235Z,3
2022-11-16T12:57:35.866Z,3
2022-11-16T12:58:45.994Z,3
2022-11-16T12:59:50.438Z,3
2022-11-16T13:00:54.093Z,3
2022-11-16T13:02:04.366Z,3
2022-11-16T13:03:06.639Z,2
2022-11-16T13:04:09.398Z,3
2022-11-16T13:05:12.048Z,3
2022-11-16T13:06:14.800Z,3
2022-11-16T13:07:17.624Z,3
2022-11-16T13:08:20.548Z,3
2022-11-16T13:09:23.518Z,3
2022-11-16T13:10:26.176Z,3
2022-11-16T13:11:28.802Z,3
2022-11-16T13:12:31.425Z,2
2022-11-16T13:13:37.442Z,1
2022-11-16T13:14:39.877Z,2
2022-11-16T13:15:42.503Z,3
2022-11-16T13:16:45.412Z,4
2022-11-16T13:17:48.045Z,3
2022-11-16T13:18:50.670Z,3
2022-11-16T13:19:53.384Z,4
2022-11-16T13:20:56.082Z,4
2022-11-16T13:21:58.779Z,3
2022-11-16T13:23:01.444Z,3
2022-11-16T13:24:04.077Z,3
2022-11-16T13:25:09.519Z,3
2022-11-16T13:26:15.457Z,2
2022-11-16T13:27:17.853Z,3
2022-11-16T13:28:20.473Z,3
2022-11-16T13:29:23.137Z,3
2022-11-16T13:30:29.310Z,3
2022-11-16T13:31:31.719Z,3
2022-11-16T13:32:34.378Z,3
2022-11-16T13:33:36.992Z,3
2022-11-16T13:34:39.629Z,3
2022-11-16T13:35:42.958Z,3
2022-11-16T13:36:46.268Z,3
2022-11-16T13:37:48.850Z,4
2022-11-16T13:38:51.775Z,3
2022-11-16T13:39:57.896Z,3
2022-11-16T13:41:00.363Z,3
2022-11-16T13:42:14.493Z,3
2022-11-16T13:43:16.753Z,3
2022-11-16T13:44:19.382Z,3
2022-11-16T13:45:27.586Z,3
2022-11-16T13:46:54.587Z,3
2022-11-16T13:47:54.087Z,4
2022-11-16T13:48:56.682Z,4
2022-11-16T13:50:02.794Z,4
2022-11-16T13:51:06.247Z,3
2022-11-16T13:52:40.347Z,3
2022-11-16T13:54:37.673Z,3
2022-11-16T13:54:54.074Z,3
2022-11-16T13:55:58.803Z,3
2022-11-16T13:57:01.369Z,2
2022-11-16T13:58:03.981Z,3
2022-11-16T13:59:06.606Z,3
2022-11-16T14:00:15.234Z,4
2022-11-16T14:01:17.693Z,3
2022-11-16T14:02:23.941Z,3
2022-11-16T14:03:26.327Z,4
2022-11-16T14:04:32.537Z,3
2022-11-16T14:05:38.704Z,3
2022-11-16T14:06:41.214Z,3
2022-11-16T14:07:43.940Z,3
2022-11-16T14:08:46.691Z,3
2022-11-16T14:09:49.344Z,2
2022-11-16T14:10:52.070Z,3
2022-11-16T14:11:54.690Z,3
2022-11-16T14:12:57.334Z,3
2022-11-16T14:13:59.972Z,3
2022-11-16T14:15:04.315Z,3
2022-11-16T14:16:06.889Z,2
2022-11-16T14:17:09.515Z,3
2022-11-16T14:18:12.162Z,3
2022-11-16T14:19:15.014Z,4
2022-11-16T14:20:22.451Z,3
2022-11-16T14:21:25.038Z,4
2022-11-16T14:22:27.821Z,4
2022-11-16T14:23:30.725Z,3
2022-11-16T14:24:33.667Z,3
2022-11-16T14:25:36.271Z,3
2022-11-16T14:26:39.028Z,3
2022-11-16T14:27:41.661Z,3
2022-11-16T14:28:44.261Z,2
2022-11-16T14:29:48.505Z,2
2022-11-16T14:30:51.852Z,2
2022-11-16T14:31:54.469Z,4
2022-11-16T14:32:57.165Z,3
2022-11-16T14:33:59.796Z,2
2022-11-16T14:35:02.405Z,2
2022-11-16T14:36:05.057Z,3
2022-11-16T14:37:07.652Z,3
2022-11-16T14:38:10.356Z,2
2022-11-16T14:39:13.025Z,3
2022-11-16T14:40:15.921Z,3
2022-11-16T14:41:18.562Z,4
2022-11-16T14:42:21.225Z,4
2022-11-16T14:43:23.879Z,3
2022-11-16T14:44:27.493Z,3
2022-11-16T14:45:30.376Z,3
2022-11-16T14:46:33.005Z,3
2022-11-16T14:47:36.156Z,2
2022-11-16T14:48:38.760Z,4
2022-11-16T14:49:41.392Z,3
2022-11-16T14:50:44.056Z,3
2022-11-16T14:51:46.714Z,3
2022-11-16T14:52:49.325Z,3
2022-11-16T14:53:52.225Z,3
2022-11-16T14:54:54.883Z,3
2022-11-16T14:55:57.674Z,3
2022-11-16T14:57:00.301Z,1
2022-11-16T14:58:03.009Z,2
2022-11-16T14:59:05.686Z,2
2022-11-16T15:00:09.161Z,3
2022-11-16T15:01:12.013Z,2
2022-11-16T15:02:14.624Z,3
2022-11-16T15:03:17.361Z,3
2022-11-16T15:04:20.084Z,3
2022-11-16T15:05:22.755Z,3
2022-11-16T15:06:25.433Z,3
2022-11-16T15:07:28.112Z,3
2022-11-16T15:08:30.899Z,3
2022-11-16T15:09:33.653Z,3
2022-11-16T15:10:36.379Z,3
2022-11-16T15:11:39.136Z,3
2022-11-16T15:12:41.803Z,3
2022-11-16T15:13:44.592Z,2
2022-11-16T15:14:47.311Z,3
2022-11-16T15:15:49.878Z,3
2022-11-16T15:16:52.600Z,3
2022-11-16T15:17:55.429Z,3
2022-11-16T15:18:58.068Z,2
2022-11-16T15:20:00.640Z,1
2022-11-16T15:21:03.280Z,1
2022-11-16T15:22:06.145Z,3
2022-11-16T15:23:08.793Z,2
2022-11-16T15:24:29.731Z,3
2022-11-16T15:25:36.932Z,3
2022-11-16T15:26:39.361Z,2
2022-11-16T15:27:42.060Z,3
2022-11-16T15:28:50.333Z,3
2022-11-16T15:29:52.761Z,3
2022-11-16T15:30:55.371Z,3
2022-11-16T15:31:58.008Z,3
2022-11-16T15:33:00.647Z,3
2022-11-16T15:34:03.260Z,3
2022-11-16T15:35:05.979Z,3
2022-11-16T15:36:08.590Z,3
2022-11-16T15:37:21.211Z,3
2022-11-16T15:38:23.416Z,3
2022-11-16T15:39:26.018Z,4
2022-11-16T15:40:28.657Z,3
2022-11-16T15:41:31.300Z,3
2022-11-16T15:42:33.956Z,4
2022-11-16T15:43:55.386Z,4
2022-11-16T15:44:59.043Z,4
2022-11-16T15:46:01.740Z,3
2022-11-16T15:47:04.334Z,4
2022-11-16T15:48:06.934Z,3